createdAt,value
2022-10-18T00:00:49.789Z,15.60
2022-10-18T00:05:52.076Z,15.70
2022-10-18T00:10:54.253Z,15.70
2022-10-18T00:16:00.574Z,15.70
2022-10-18T00:21:05.472Z,15.70
2022-10-18T00:26:12.095Z,15.60
2022-10-18T00:31:38.862Z,15.60
2022-10-18T00:36:41.539Z,15.70
2022-10-18T00:41:43.638Z,15.70
2022-10-18T00:46:49.090Z,15.70
2022-10-18T00:51:57.839Z,15.70
2022-10-18T00:57:00.044Z,15.60
2022-10-18T01:02:11.317Z,15.60
2022-10-18T01:07:43.524Z,15.60
2022-10-18T01:13:12.361Z,15.60
2022-10-18T01:18:30.567Z,15.60
2022-10-18T01:24:09.703Z,15.60
2022-10-18T01:29:30.296Z,15.60
2022-10-18T01:34:35.753Z,15.60
2022-10-18T01:39:43.353Z,15.60
2022-10-18T01:44:46.162Z,15.50
2022-10-18T01:49:47.921Z,15.60
2022-10-18T01:54:50.060Z,15.70
2022-10-18T02:00:09.909Z,15.60
2022-10-18T02:05:30.416Z,15.50
2022-10-18T02:10:38.449Z,15.60
2022-10-18T02:15:43.401Z,15.60
2022-10-18T02:20:45.709Z,15.50
2022-10-18T02:25:47.553Z,15.50
2022-10-18T02:31:04.286Z,15.50
2022-10-18T02:36:14.040Z,15.50
2022-10-18T02:41:26.337Z,15.50
2022-10-18T02:46:28.174Z,15.40
2022-10-18T02:51:29.918Z,15.40
2022-10-18T02:56:31.752Z,15.20
2022-10-18T03:01:34.629Z,15.30
2022-10-18T03:06:38.268Z,15.40
2022-10-18T03:11:40.099Z,15.40
2022-10-18T03:16:41.977Z,15.40
2022-10-18T03:21:43.745Z,15.50
2022-10-18T03:26:47.162Z,15.50
2022-10-18T03:31:48.952Z,15.50
2022-10-18T03:36:50.721Z,15.40
2022-10-18T03:41:52.550Z,15.50
2022-10-18T03:46:54.567Z,15.40
2022-10-18T03:51:56.288Z,15.40
2022-10-18T03:56:58.173Z,15.40
2022-10-18T04:01:59.904Z,15.50
2022-10-18T04:07:01.673Z,15.50
2022-10-18T04:12:03.506Z,15.40
2022-10-18T04:17:08.508Z,15.50
2022-10-18T04:22:15.371Z,15.50
2022-10-18T04:27:17.139Z,15.60
2022-10-18T04:32:18.993Z,15.50
2022-10-18T04:37:20.931Z,15.50
2022-10-18T04:42:23.062Z,15.40
2022-10-18T04:47:24.844Z,15.40
2022-10-18T04:52:26.570Z,15.50
2022-10-18T04:57:28.779Z,15.40
2022-10-18T05:02:32.378Z,15.40
2022-10-18T05:07:34.233Z,15.40
2022-10-18T05:12:35.935Z,15.40
2022-10-18T05:17:37.705Z,15.50
2022-10-18T05:22:39.481Z,15.40
2022-10-18T05:27:41.194Z,15.40
2022-10-18T05:32:42.925Z,15.40
2022-10-18T05:37:44.625Z,15.30
2022-10-18T05:42:46.327Z,15.30
2022-10-18T05:47:48.136Z,15.30
2022-10-18T05:52:49.860Z,15.20
2022-10-18T05:57:51.976Z,15.10
2022-10-18T06:02:56.079Z,15.20
2022-10-18T06:08:00.050Z,15.00
2022-10-18T06:13:01.812Z,15.10
2022-10-18T06:18:03.726Z,15.10
2022-10-18T06:23:05.486Z,15.00
2022-10-18T06:28:09.030Z,14.90
2022-10-18T06:33:13.315Z,14.90
2022-10-18T06:38:15.145Z,14.80
2022-10-18T06:43:21.048Z,14.90
2022-10-18T06:48:23.858Z,15.00
2022-10-18T06:53:27.677Z,15.10
2022-10-18T06:58:30.887Z,15.00
2022-10-18T07:03:34.730Z,15.10
2022-10-18T07:08:37.052Z,15.20
2022-10-18T07:13:38.805Z,15.20
2022-10-18T07:18:42.418Z,15.20
2022-10-18T07:23:48.988Z,15.20
2022-10-18T07:28:58.113Z,15.20
2022-10-18T07:34:00.201Z,15.20
2022-10-18T07:39:02.374Z,15.30
2022-10-18T07:44:04.941Z,15.30
2022-10-18T07:49:06.764Z,15.10
2022-10-18T07:54:09.422Z,15.00
2022-10-18T07:59:11.791Z,15.00
2022-10-18T08:04:16.421Z,15.10
2022-10-18T08:09:18.383Z,15.20
2022-10-18T08:14:20.534Z,15.20
2022-10-18T08:19:22.441Z,15.20
2022-10-18T08:24:24.238Z,15.40
2022-10-18T08:29:29.238Z,15.50
2022-10-18T08:34:34.117Z,15.60
2022-10-18T08:39:36.249Z,15.80
2022-10-18T08:44:49.260Z,15.90
2022-10-18T08:49:57.970Z,16.00
2022-10-18T08:55:23.373Z,16.10
2022-10-18T09:00:29.631Z,16.30
2022-10-18T09:05:51.195Z,16.40
2022-10-18T09:11:49.566Z,16.50
2022-10-18T09:17:16.234Z,16.50
2022-10-18T09:22:20.616Z,16.60
2022-10-18T09:27:36.191Z,16.90
2022-10-18T09:33:00.997Z,17.00
2022-10-18T09:38:09.302Z,17.10
2022-10-18T09:43:21.058Z,17.20
2022-10-18T09:48:36.776Z,17.00
2022-10-18T09:54:12.569Z,16.80
2022-10-18T09:59:36.083Z,16.70
2022-10-18T10:04:37.789Z,16.60
2022-10-18T10:10:07.453Z,16.70
2022-10-18T10:15:33.129Z,16.60
2022-10-18T10:20:52.700Z,16.60
2022-10-18T10:25:57.673Z,17.00
2022-10-18T10:31:29.389Z,17.10
2022-10-18T10:36:32.661Z,16.90
2022-10-18T10:41:34.997Z,17.10
2022-10-18T10:46:37.054Z,17.20
2022-10-18T10:51:40.161Z,17.60
2022-10-18T10:57:08.504Z,17.70
2022-10-18T11:02:17.747Z,17.70
2022-10-18T11:07:41.788Z,17.80
2022-10-18T11:13:12.570Z,18.10
2022-10-18T11:18:20.093Z,18.30
2022-10-18T11:23:26.409Z,18.30
2022-10-18T11:28:45.619Z,18.60
2022-10-18T11:34:13.452Z,18.80
2022-10-18T11:39:30.058Z,18.90
2022-10-18T11:44:41.604Z,18.90
2022-10-18T11:49:52.593Z,19.30
2022-10-18T11:55:09.392Z,19.20
2022-10-18T12:00:29.133Z,19.50
2022-10-18T12:05:32.150Z,19.40
2022-10-18T12:10:44.423Z,19.60
2022-10-18T12:15:55.479Z,19.40
2022-10-18T12:20:59.638Z,19.70
2022-10-18T12:26:04.054Z,19.60
2022-10-18T12:31:08.640Z,19.60
2022-10-18T12:36:21.934Z,19.80
2022-10-18T12:41:28.349Z,19.80
2022-10-18T12:46:53.699Z,20.10
2022-10-18T12:51:59.538Z,20.30
2022-10-18T12:57:03.777Z,20.40
2022-10-18T13:02:05.494Z,20.50
2022-10-18T13:07:10.454Z,20.70
2022-10-18T13:12:12.992Z,21.00
2022-10-18T13:17:49.668Z,21.10
2022-10-18T13:23:37.830Z,21.30
2022-10-18T13:28:53.093Z,21.20
2022-10-18T13:33:55.013Z,21.60
2022-10-18T13:38:59.545Z,21.50
2022-10-18T13:44:22.726Z,21.70
2022-10-18T13:49:39.716Z,21.90
2022-10-18T13:54:56.196Z,22.30
2022-10-18T14:00:11.889Z,22.80
2022-10-18T14:05:36.801Z,22.90
2022-10-18T14:11:02.544Z,22.90
2022-10-18T14:16:43.081Z,22.90
2022-10-18T14:21:53.559Z,23.30
2022-10-18T14:27:21.927Z,23.50
2022-10-18T14:32:31.452Z,23.50
2022-10-18T14:37:37.081Z,23.80
2022-10-18T14:42:48.738Z,23.80
2022-10-18T14:47:50.437Z,24.30
2022-10-18T14:52:52.587Z,24.50
2022-10-18T14:57:54.994Z,24.30
2022-10-18T15:02:56.796Z,24.30
2022-10-18T15:08:00.162Z,24.30
2022-10-18T15:13:09.643Z,24.50
2022-10-18T15:18:24.800Z,24.70
2022-10-18T15:23:31.377Z,24.60
2022-10-18T15:28:37.305Z,24.60
2022-10-18T15:33:39.197Z,24.90
2022-10-18T15:38:41.034Z,25.60
2022-10-18T15:43:42.778Z,25.60
2022-10-18T15:48:45.337Z,25.00
2022-10-18T15:53:51.905Z,24.60
2022-10-18T15:58:57.075Z,24.20
2022-10-18T16:03:59.606Z,23.60
2022-10-18T16:09:01.362Z,23.20
2022-10-18T16:14:03.307Z,22.70
2022-10-18T16:19:07.327Z,22.00
2022-10-18T16:24:09.226Z,21.20
2022-10-18T16:29:21.741Z,20.50
2022-10-18T16:34:23.993Z,20.00
2022-10-18T16:39:26.254Z,19.50
2022-10-18T16:44:28.038Z,19.30
2022-10-18T16:49:29.828Z,19.00
2022-10-18T16:54:31.619Z,18.70
2022-10-18T16:59:33.423Z,18.50
2022-10-18T17:04:35.158Z,18.30
2022-10-18T17:09:37.029Z,18.00
2022-10-18T17:14:38.792Z,17.80
2022-10-18T17:19:40.573Z,17.70
2022-10-18T17:24:42.381Z,17.60
2022-10-18T17:29:44.227Z,17.40
2022-10-18T17:34:45.954Z,17.20
2022-10-18T17:39:47.817Z,17.10
2022-10-18T17:44:51.934Z,17.00
2022-10-18T17:49:54.849Z,16.90
2022-10-18T17:54:56.614Z,16.70
2022-10-18T17:59:59.787Z,16.50
2022-10-18T18:05:02.119Z,16.40
2022-10-18T18:10:04.234Z,16.30
2022-10-18T18:15:06.484Z,16.20
2022-10-18T18:20:08.658Z,16.10
2022-10-18T18:25:10.557Z,16.00
2022-10-18T18:30:12.504Z,16.00
2022-10-18T18:35:14.283Z,15.80
2022-10-18T18:40:16.071Z,15.70
2022-10-18T18:45:17.792Z,15.80
2022-10-18T18:50:19.563Z,15.60
2022-10-18T18:55:21.359Z,15.60
2022-10-18T19:00:23.080Z,15.50
2022-10-18T19:05:25.783Z,15.40
2022-10-18T19:10:27.877Z,15.40
2022-10-18T19:15:29.675Z,15.20
2022-10-18T19:20:31.684Z,15.10
2022-10-18T19:25:33.416Z,14.90
2022-10-18T19:30:35.186Z,14.90
2022-10-18T19:35:38.260Z,14.60
2022-10-18T19:40:39.974Z,14.70
2022-10-18T19:45:41.706Z,14.50
2022-10-18T19:50:43.475Z,14.50
2022-10-18T19:55:45.368Z,14.60
2022-10-18T20:00:52.974Z,14.50
2022-10-18T20:05:56.573Z,14.40
2022-10-18T20:11:08.222Z,14.30
2022-10-18T20:16:11.815Z,14.20
2022-10-18T20:21:15.885Z,14.10
2022-10-18T20:26:20.785Z,14.10
2022-10-18T20:31:33.931Z,13.90
2022-10-18T20:36:35.836Z,13.90
2022-10-18T20:41:40.953Z,13.70
2022-10-18T20:46:43.918Z,13.80
2022-10-18T20:51:45.728Z,13.70
2022-10-18T20:56:47.469Z,13.70
2022-10-18T21:01:49.240Z,13.60
2022-10-18T21:06:51.146Z,13.60
2022-10-18T21:11:54.591Z,13.50
2022-10-18T21:16:56.845Z,13.40
2022-10-18T21:21:58.624Z,13.40
2022-10-18T21:27:00.403Z,13.30
2022-10-18T21:32:03.087Z,13.30
2022-10-18T21:37:04.839Z,13.10
2022-10-18T21:42:06.565Z,13.10
2022-10-18T21:47:08.257Z,13.00
2022-10-18T21:52:17.428Z,12.80
2022-10-18T21:57:19.195Z,12.80
2022-10-18T22:02:20.916Z,12.70
2022-10-18T22:07:22.770Z,12.70
2022-10-18T22:12:24.573Z,12.60
2022-10-18T22:17:26.402Z,12.50
2022-10-18T22:22:28.109Z,12.60
2022-10-18T22:27:31.288Z,12.40
2022-10-18T22:32:33.277Z,12.40
2022-10-18T22:37:35.660Z,12.40
2022-10-18T22:42:37.774Z,12.20
2022-10-18T22:47:39.530Z,12.20
2022-10-18T22:52:41.236Z,12.10
2022-10-18T22:57:43.112Z,12.10
2022-10-18T23:02:44.922Z,12.00
2022-10-18T23:07:49.966Z,12.00
2022-10-18T23:12:51.681Z,12.00
2022-10-18T23:17:54.764Z,11.90
2022-10-18T23:22:56.646Z,11.90
2022-10-18T23:27:58.382Z,11.90
2022-10-18T23:33:00.242Z,11.70
2022-10-18T23:38:01.956Z,11.80
2022-10-18T23:43:10.568Z,11.90
2022-10-18T23:48:31.362Z,11.70
2022-10-18T23:53:33.706Z,11.70
2022-10-18T23:59:26.358Z,11.60
